Time;durP1;ratioP1;P1;durP2;ratioP2;P2;SDS_P1;SDS_P2;PMS_P1;PMS_P2;Temp;Humidity;BMP_temperature;BMP_pressure;BME280_temperature;BME280_humidity;BME280_pressure;Samples;Min_cycle;Max_cycle;Signal;HPM_P1;HPM_P2
2022/03/26 00:00:14;;;;;;;20.17;11.20;;;;;;;12.07;35.12;95496.34;5089111;28;20262;-79
2022/03/26 00:02:41;;;;;;;18.53;10.40;;;;;;;12.02;35.32;95502.66;5089376;28;20185;-74
2022/03/26 00:05:09;;;;;;;25.53;10.90;;;;;;;11.94;35.03;95488.84;5089799;28;20192;-71
2022/03/26 00:07:35;;;;;;;24.27;11.40;;;;;;;11.94;35.08;95489.66;5088961;28;20210;-77
2022/03/26 00:10:03;;;;;;;16.87;9.83;;;;;;;11.83;35.10;95483.78;5089742;28;20178;-79
2022/03/26 00:12:30;;;;;;;19.00;10.23;;;;;;;11.89;35.43;95501.25;5089007;28;20676;-71
2022/03/26 00:14:58;;;;;;;21.57;10.67;;;;;;;11.86;35.28;95492.03;5089344;28;20190;-76
2022/03/26 00:17:26;;;;;;;17.33;9.90;;;;;;;11.84;35.45;95500.81;5086655;28;20243;-73
2022/03/26 00:19:53;;;;;;;17.53;9.80;;;;;;;11.77;35.48;95500.44;5089365;28;20521;-73
2022/03/26 00:22:20;;;;;;;17.30;9.70;;;;;;;11.75;35.71;95502.34;5091033;28;20189;-72
2022/03/26 00:24:47;;;;;;;17.40;9.80;;;;;;;11.71;35.60;95503.53;5092633;28;20194;-73
2022/03/26 00:27:14;;;;;;;13.90;9.33;;;;;;;11.66;35.72;95501.34;5092679;28;20827;-79
2022/03/26 00:29:41;;;;;;;18.30;9.10;;;;;;;11.64;35.72;95498.06;5091743;28;20209;-71
2022/03/26 00:32:10;;;;;;;14.07;9.10;;;;;;;11.62;35.75;95499.16;5093087;28;20190;-71
2022/03/26 00:34:37;;;;;;;16.17;8.80;;;;;;;11.59;35.89;95500.19;5092839;28;20197;-71
2022/03/26 00:37:05;;;;;;;13.30;9.10;;;;;;;11.56;35.97;95503.81;5092849;28;20214;-71
2022/03/26 00:39:32;;;;;;;17.67;10.10;;;;;;;11.48;35.84;95495.13;5092344;28;20190;-73
2022/03/26 00:41:59;;;;;;;15.60;9.53;;;;;;;11.49;36.11;95501.88;5090671;28;20202;-79
2022/03/26 00:44:26;;;;;;;21.73;10.07;;;;;;;11.45;36.11;95498.75;5092659;28;20271;-73
2022/03/26 00:46:53;;;;;;;19.70;10.47;;;;;;;11.43;36.10;95508.28;5092364;28;20228;-72
2022/03/26 00:49:21;;;;;;;13.13;8.53;;;;;;;11.34;36.35;95500.53;5092124;28;20220;-72
2022/03/26 00:51:48;;;;;;;14.97;9.10;;;;;;;11.36;36.35;95506.38;5092496;28;20611;-77
2022/03/26 00:54:15;;;;;;;14.87;9.23;;;;;;;11.34;36.28;95513.34;5092160;28;20208;-76
2022/03/26 00:56:43;;;;;;;16.73;8.83;;;;;;;11.32;36.56;95512.66;5092200;28;20197;-72
2022/03/26 00:59:10;;;;;;;13.93;8.83;;;;;;;11.27;36.58;95507.91;5092586;28;20590;-76
2022/03/26 01:01:37;;;;;;;15.77;10.20;;;;;;;11.23;36.70;95512.44;5089351;28;20190;-71
2022/03/26 01:04:04;;;;;;;16.37;8.87;;;;;;;11.22;36.75;95515.13;5072075;28;20572;-71
2022/03/26 01:06:33;;;;;;;13.87;9.30;;;;;;;11.20;36.80;95504.19;5071770;28;20653;-70
2022/03/26 01:08:59;;;;;;;15.57;9.43;;;;;;;11.13;36.89;95508.97;5071732;28;20583;-73
2022/03/26 01:11:26;;;;;;;16.93;8.67;;;;;;;11.15;36.82;95517.38;5087166;28;20189;-72
2022/03/26 01:13:56;;;;;;;11.07;7.97;;;;;;;11.11;37.06;95518.53;5095516;28;20186;-73
2022/03/26 01:16:23;;;;;;;14.97;9.23;;;;;;;11.09;37.20;95534.94;5096011;28;20200;-72
2022/03/26 01:18:50;;;;;;;13.77;8.47;;;;;;;11.07;37.09;95536.81;5091742;28;20178;-71
2022/03/26 01:21:17;;;;;;;12.17;8.30;;;;;;;11.04;37.14;95535.28;5091468;28;20586;-71
2022/03/26 01:23:46;;;;;;;18.63;8.77;;;;;;;11.02;37.30;95535.44;5091655;28;20221;-73
2022/03/26 01:26:13;;;;;;;12.87;7.97;;;;;;;10.97;37.40;95534.97;5091227;28;20305;-80
2022/03/26 01:28:40;;;;;;;13.17;8.23;;;;;;;10.94;37.53;95535.22;5091923;28;20190;-81
2022/03/26 01:31:07;;;;;;;12.17;8.03;;;;;;;10.92;37.58;95537.06;5091122;28;20190;-77
2022/03/26 01:33:34;;;;;;;12.07;8.27;;;;;;;10.89;37.63;95536.50;5091643;28;20190;-79
2022/03/26 01:36:02;;;;;;;13.57;8.70;;;;;;;10.89;37.75;95541.63;5091768;28;20190;-77
2022/03/26 01:38:29;;;;;;;16.33;8.37;;;;;;;10.87;37.80;95546.84;5091884;28;20227;-75
2022/03/26 01:40:57;;;;;;;15.37;8.87;;;;;;;10.84;37.91;95541.97;5092221;28;20194;-74
2022/03/26 01:43:24;;;;;;;17.53;9.87;;;;;;;10.82;38.06;95543.81;5091564;28;20185;-79
2022/03/26 01:45:51;;;;;;;14.63;9.60;;;;;;;10.76;38.27;95547.69;5091188;28;20708;-82
2022/03/26 01:48:17;;;;;;;17.20;8.73;;;;;;;10.73;38.25;95537.66;5091553;28;20214;-74
2022/03/26 01:50:44;;;;;;;17.60;8.27;;;;;;;10.73;38.30;95539.41;5091552;28;20193;-82
2022/03/26 01:53:11;;;;;;;17.97;9.57;;;;;;;10.72;38.44;95545.47;5091074;28;20251;-78
2022/03/26 01:55:38;;;;;;;19.60;9.47;;;;;;;10.69;38.47;95541.41;5091312;28;20536;-81
2022/03/26 01:58:06;;;;;;;15.87;8.60;;;;;;;10.66;38.51;95538.25;5091223;28;20190;-81
2022/03/26 02:00:35;;;;;;;16.27;9.23;;;;;;;10.63;38.60;95539.31;5091121;28;20197;-79
2022/03/26 02:03:01;;;;;;;12.80;9.27;;;;;;;10.61;38.76;95548.03;5090979;28;20224;-79
2022/03/26 02:05:29;;;;;;;13.10;8.93;;;;;;;10.56;38.68;95545.81;5090955;28;20536;-75
2022/03/26 02:07:56;;;;;;;15.03;9.57;;;;;;;10.55;38.80;95547.56;5090304;28;20698;-78
2022/03/26 02:10:23;;;;;;;15.23;9.17;;;;;;;10.51;38.90;95542.81;5090790;28;20193;-80
2022/03/26 02:12:50;;;;;;;17.30;8.80;;;;;;;10.48;38.83;95541.28;5090391;28;20189;-81
2022/03/26 02:15:19;;;;;;;11.80;8.63;;;;;;;10.47;38.82;95549.88;5090404;28;20197;-81
2022/03/26 02:17:45;;;;;;;13.10;9.00;;;;;;;10.45;38.99;95548.41;5090264;28;20185;-78
2022/03/26 02:20:15;;;;;;;11.87;8.23;;;;;;;10.44;39.04;95554.41;5090911;28;20289;-77
2022/03/26 02:22:42;;;;;;;13.00;8.60;;;;;;;10.38;39.17;95545.47;5090287;28;20213;-71
2022/03/26 02:25:10;;;;;;;13.93;9.33;;;;;;;10.38;39.14;95547.22;5090321;28;20192;-72
2022/03/26 02:27:37;;;;;;;15.00;8.30;;;;;;;10.35;39.13;95547.44;5090899;28;20318;-74
2022/03/26 02:30:07;;;;;;;17.53;8.67;;;;;;;10.32;39.20;95548.50;5090708;28;20551;-72
2022/03/26 02:32:34;;;;;;;16.40;9.03;;;;;;;10.32;39.38;95551.06;5090412;28;20526;-75
2022/03/26 02:35:01;;;;;;;19.20;8.87;;;;;;;10.32;39.27;95552.78;5090208;28;20262;-72
2022/03/26 02:37:29;;;;;;;18.07;9.43;;;;;;;10.30;39.39;95550.34;5090429;28;20182;-77
2022/03/26 02:39:56;;;;;;;15.30;8.87;;;;;;;10.24;39.43;95555.88;5090590;28;20247;-75
2022/03/26 02:42:23;;;;;;;14.77;8.90;;;;;;;10.23;39.52;95560.19;5090712;28;20185;-72
2022/03/26 02:44:50;;;;;;;15.33;7.77;;;;;;;10.19;39.68;95553.69;5089709;28;20194;-70
2022/03/26 02:47:17;;;;;;;10.87;7.77;;;;;;;10.20;39.57;95562.16;5089694;28;20221;-71
2022/03/26 02:49:44;;;;;;;15.60;8.80;;;;;;;10.13;39.64;95553.31;5090226;28;20581;-79
2022/03/26 02:52:10;;;;;;;13.73;7.60;;;;;;;10.13;39.69;95554.13;5090481;28;20186;-78
2022/03/26 02:54:39;;;;;;;12.93;8.00;;;;;;;10.15;39.83;95561.69;5090031;28;20636;-71
2022/03/26 02:57:06;;;;;;;15.43;8.80;;;;;;;10.12;39.77;95562.72;5090111;28;20178;-74
2022/03/26 02:59:33;;;;;;;11.87;8.53;;;;;;;10.07;39.82;95554.59;5089909;28;20218;-73
2022/03/26 03:02:00;;;;;;;9.30;7.57;;;;;;;10.06;40.12;95560.63;5090038;28;20197;-81
2022/03/26 03:04:27;;;;;;;13.97;8.77;;;;;;;10.05;40.06;95564.09;5089832;28;20847;-72
2022/03/26 03:06:54;;;;;;;13.23;8.20;;;;;;;10.00;40.25;95564.44;5074717;28;20233;-76
2022/03/26 03:09:21;;;;;;;15.53;8.73;;;;;;;9.94;40.38;95564.88;5070742;28;20281;-76
2022/03/26 03:11:50;;;;;;;12.17;8.17;;;;;;;9.97;40.25;95568.94;5069343;28;20197;-75
2022/03/26 03:14:17;;;;;;;12.40;8.23;;;;;;;9.91;40.30;95564.28;5069985;28;20198;-71
2022/03/26 03:16:45;;;;;;;12.53;8.50;;;;;;;9.91;40.50;95572.78;5069569;28;20192;-79
2022/03/26 03:19:12;;;;;;;12.00;7.73;;;;;;;9.91;40.41;95571.97;5081524;28;20198;-79
2022/03/26 03:21:39;;;;;;;12.87;8.77;;;;;;;9.91;40.40;95569.41;5089480;28;20188;-79
2022/03/26 03:24:07;;;;;;;13.73;7.83;;;;;;;9.87;40.65;95570.56;5089552;28;20217;-77
2022/03/26 03:26:33;;;;;;;17.20;8.47;;;;;;;9.86;40.60;95574.84;5089460;28;20200;-76
2022/03/26 03:29:02;;;;;;;14.83;8.60;;;;;;;9.83;40.72;95569.16;5089439;28;20189;-75
2022/03/26 03:31:28;;;;;;;9.93;7.37;;;;;;;9.80;40.79;95572.72;5089474;28;20656;-81
2022/03/26 03:33:56;;;;;;;15.47;8.27;;;;;;;9.80;40.41;95575.28;5089774;28;20192;-79
2022/03/26 03:36:23;;;;;;;13.70;8.60;;;;;;;9.78;40.99;95574.59;5089419;28;20265;-81
2022/03/26 03:38:49;;;;;;;16.77;8.13;;;;;;;9.73;40.69;95572.38;5089579;28;20197;-79
2022/03/26 03:41:17;;;;;;;10.43;8.00;;;;;;;9.66;40.91;95560.97;5089070;28;20182;-78
2022/03/26 03:43:43;;;;;;;12.00;7.70;;;;;;;9.70;40.89;95570.03;5089936;28;20581;-80
2022/03/26 03:46:12;;;;;;;12.10;8.40;;;;;;;9.66;41.09;95568.63;5089637;28;20186;-72
2022/03/26 03:48:39;;;;;;;11.53;7.70;;;;;;;9.67;40.99;95580.47;5089535;28;20677;-75
2022/03/26 03:51:07;;;;;;;14.97;8.63;;;;;;;9.67;41.12;95583.03;5089084;28;20555;-78
2022/03/26 03:53:34;;;;;;;13.63;7.70;;;;;;;9.65;41.16;95579.75;5089168;28;20178;-76
2022/03/26 03:56:01;;;;;;;12.77;8.43;;;;;;;9.61;41.12;95580.91;5089959;28;20189;-80
2022/03/26 03:58:28;;;;;;;12.07;8.47;;;;;;;9.58;41.07;95577.75;5093545;28;20190;-76
2022/03/26 04:00:55;;;;;;;15.37;8.53;;;;;;;9.58;41.18;95582.84;5094413;28;20189;-77
2022/03/26 04:03:24;;;;;;;15.47;8.27;;;;;;;9.55;41.07;95583.91;5094000;28;20306;-78
2022/03/26 04:05:50;;;;;;;13.20;7.67;;;;;;;9.53;41.15;95578.91;5096817;28;20182;-75
2022/03/26 04:08:17;;;;;;;12.17;7.67;;;;;;;9.50;41.37;95588.53;5097733;28;20229;-77
2022/03/26 04:10:44;;;;;;;13.57;8.10;;;;;;;9.50;41.25;95588.53;5099360;28;20277;-80
2022/03/26 04:13:11;;;;;;;13.10;7.60;;;;;;;9.47;41.39;95593.84;5094324;28;20202;-81
2022/03/26 04:15:38;;;;;;;12.17;8.53;;;;;;;9.48;41.28;95593.72;5094345;28;20181;-80
2022/03/26 04:18:05;;;;;;;14.83;8.40;;;;;;;9.46;41.25;95595.59;5092741;28;20198;-78
2022/03/26 04:20:33;;;;;;;17.03;8.60;;;;;;;9.45;41.39;95605.91;5093402;28;20217;-82
2022/03/26 04:23:00;;;;;;;12.67;8.20;;;;;;;9.43;41.21;95603.47;5092630;28;20217;-79
2022/03/26 04:25:27;;;;;;;22.07;8.50;;;;;;;9.42;41.31;95604.38;5093229;28;20194;-80
2022/03/26 04:27:54;;;;;;;16.87;8.47;;;;;;;9.40;41.13;95603.66;5093142;28;20221;-79
2022/03/26 04:30:21;;;;;;;14.70;8.93;;;;;;;9.44;41.02;95607.63;5093079;28;20648;-81
2022/03/26 04:32:48;;;;;;;19.00;9.67;;;;;;;9.45;41.05;95611.00;5092438;28;20221;-72
2022/03/26 04:35:15;;;;;;;13.37;8.57;;;;;;;9.47;40.97;95611.72;5092567;28;20197;-75
2022/03/26 04:37:43;;;;;;;15.60;8.53;;;;;;;9.49;41.03;95620.88;5092799;28;20557;-80
2022/03/26 04:40:11;;;;;;;13.20;8.83;;;;;;;9.49;40.91;95613.22;5092692;28;20603;-74
2022/03/26 04:42:38;;;;;;;15.13;8.73;;;;;;;9.53;40.90;95621.50;5092736;28;20269;-72
2022/03/26 04:45:06;;;;;;;14.70;8.83;;;;;;;9.53;40.98;95619.75;5091935;28;20185;-71
2022/03/26 04:47:33;;;;;;;16.30;8.90;;;;;;;9.60;40.76;95625.25;5092041;28;20224;-79
2022/03/26 04:50:00;;;;;;;24.50;10.47;;;;;;;9.58;40.70;95610.94;5092594;28;20216;-72
2022/03/26 04:52:27;;;;;;;23.47;9.87;;;;;;;9.69;40.58;95631.44;5092540;28;20201;-71
2022/03/26 04:54:55;;;;;;;20.77;10.33;;;;;;;9.74;40.53;95637.03;5092137;28;20182;-75
2022/03/26 04:57:21;;;;;;;19.37;10.23;;;;;;;9.80;40.46;95634.03;5092576;28;20289;-74
2022/03/26 04:59:48;;;;;;;15.13;10.30;;;;;;;9.82;40.33;95623.72;5092232;28;20679;-71
2022/03/26 05:02:15;;;;;;;13.73;8.87;;;;;;;9.98;40.33;95637.84;5091669;28;20208;-73
2022/03/26 05:04:42;;;;;;;19.23;11.20;;;;;;;10.10;40.04;95635.31;5091599;28;20186;-71
2022/03/26 05:09:49;;;;;;;19.60;11.07;;;;;;;10.54;39.45;95642.31;5092044;28;20564;-71
2022/03/26 05:12:18;;;;;;;18.63;10.83;;;;;;;10.86;39.36;95639.91;5091902;28;20205;-71
2022/03/26 05:14:45;;;;;;;21.53;11.47;;;;;;;11.23;39.16;95647.34;5091498;28;20197;-74
2022/03/26 05:17:13;;;;;;;17.43;11.30;;;;;;;11.65;38.88;95647.47;5091264;28;20657;-70
2022/03/26 05:19:40;;;;;;;19.97;10.47;;;;;;;12.11;38.65;95642.13;5091981;28;20629;-74
2022/03/26 05:22:07;;;;;;;17.87;11.37;;;;;;;12.65;38.31;95647.97;5091690;28;20193;-71
2022/03/26 05:24:33;;;;;;;15.23;10.53;;;;;;;13.18;38.12;95645.28;5091658;28;20221;-71
2022/03/26 05:27:00;;;;;;;21.00;10.73;;;;;;;13.75;37.59;95642.03;5091094;28;20188;-70
2022/03/26 05:29:29;;;;;;;18.27;10.17;;;;;;;14.35;36.93;95644.50;5091688;28;20221;-71
2022/03/26 05:31:56;;;;;;;16.30;10.23;;;;;;;14.96;36.41;95649.25;5091431;28;20258;-70
2022/03/26 05:34:23;;;;;;;19.43;11.00;;;;;;;15.60;35.58;95646.78;5091559;28;20733;-72
2022/03/26 05:36:50;;;;;;;16.90;11.10;;;;;;;16.17;34.91;95637.84;5090976;28;20186;-72
2022/03/26 05:39:17;;;;;;;16.50;11.50;;;;;;;16.87;34.21;95653.38;5091504;28;20194;-72
2022/03/26 05:41:44;;;;;;;20.17;11.97;;;;;;;17.48;33.50;95652.38;5091630;28;20192;-72
2022/03/26 05:44:11;;;;;;;19.83;12.43;;;;;;;18.14;32.85;95653.38;5091115;28;20204;-70
2022/03/26 05:46:39;;;;;;;19.00;11.90;;;;;;;18.76;32.10;95656.28;5091403;28;20190;-71
2022/03/26 05:49:06;;;;;;;19.70;12.10;;;;;;;19.40;31.29;95663.25;5090895;28;20228;-72
2022/03/26 05:51:33;;;;;;;19.13;12.00;;;;;;;19.88;30.70;95644.06;5091189;28;20192;-73
2022/03/26 05:54:00;;;;;;;18.03;12.27;;;;;;;20.61;30.03;95665.31;5090838;28;20585;-76
2022/03/26 05:56:26;;;;;;;19.03;13.07;;;;;;;21.16;29.55;95662.34;5091196;28;20192;-75
2022/03/26 05:58:53;;;;;;;17.40;12.83;;;;;;;21.81;28.84;95671.19;5090457;28;20710;-72
2022/03/26 06:01:21;;;;;;;22.80;12.77;;;;;;;22.38;28.22;95664.38;5091050;28;20230;-76
2022/03/26 06:03:49;;;;;;;22.37;13.97;;;;;;;22.94;27.63;95667.84;5091131;28;20267;-75
2022/03/26 06:06:16;;;;;;;25.90;12.97;;;;;;;23.50;27.05;95670.38;5091075;28;20208;-70
2022/03/26 06:08:43;;;;;;;22.65;12.60;;;;;;;24.02;26.44;95671.59;5090697;28;20278;-74
2022/03/26 06:11:10;;;;;;;17.67;13.93;;;;;;;24.52;25.86;95671.31;5090935;28;20182;-75
2022/03/26 06:13:37;;;;;;;24.05;12.15;;;;;;;25.05;25.46;95678.34;5091479;28;20182;-74
2022/03/26 06:16:05;;;;;;;19.80;12.80;;;;;;;25.46;24.92;95672.84;5090775;28;20269;-76
2022/03/26 06:18:32;;;;;;;16.33;11.57;;;;;;;25.96;24.39;95686.19;5090640;28;20202;-78
2022/03/26 06:21:01;;;;;;;20.83;12.48;;;;;;;26.38;24.20;95681.28;5091397;28;20198;-71
2022/03/26 06:23:28;;;;;;;19.80;12.55;;;;;;;26.76;23.58;95682.03;5091819;28;20259;-76
2022/03/26 06:25:54;;;;;;;16.67;12.40;;;;;;;26.86;23.11;95647.44;5091073;28;20190;-78
2022/03/26 06:28:21;;;;;;;20.52;12.60;;;;;;;27.45;22.79;95680.22;5090753;28;20221;-73
2022/03/26 06:30:49;;;;;;;19.17;12.57;;;;;;;27.81;22.42;95690.94;5090400;28;20193;-86
2022/03/26 06:33:16;;;;;;;16.30;11.95;;;;;;;28.14;22.35;95682.63;5090716;28;20266;-76
2022/03/26 06:35:43;;;;;;;17.48;13.02;;;;;;;28.45;22.02;95685.06;5091450;28;20225;-84
2022/03/26 06:38:11;;;;;;;16.88;11.80;;;;;;;28.74;21.32;95693.94;5091020;28;20198;-81
2022/03/26 06:40:38;;;;;;;18.60;11.55;;;;;;;29.03;20.99;95696.75;5090843;28;21061;-83
2022/03/26 06:43:06;;;;;;;12.95;10.55;;;;;;;29.31;20.78;95700.50;5090704;28;20182;-79
2022/03/26 06:45:33;;;;;;;15.10;7.22;;;;;;;29.42;23.95;95702.34;5090126;28;20193;-72
2022/03/26 06:48:00;;;;;;;15.52;7.13;;;;;;;29.44;26.02;95697.63;5090167;28;20213;-78
2022/03/26 06:50:27;;;;;;;10.98;6.70;;;;;;;29.50;26.83;95699.34;5090191;28;20185;-71
2022/03/26 06:52:55;;;;;;;13.05;7.53;;;;;;;29.53;26.98;95705.97;5090500;28;20212;-74
2022/03/26 06:55:24;;;;;;;22.08;7.63;;;;;;;29.55;26.78;95707.38;5090321;28;20186;-74
2022/03/26 06:57:51;;;;;;;9.55;6.88;;;;;;;29.53;27.09;95701.50;5090165;28;20249;-77
2022/03/26 07:00:18;;;;;;;10.98;7.47;;;;;;;29.61;26.67;95706.44;5090223;28;20185;-75
2022/03/26 07:02:45;;;;;;;11.15;7.28;;;;;;;29.59;26.93;95708.53;5089814;28;20193;-77
2022/03/26 07:05:12;;;;;;;14.20;8.00;;;;;;;29.68;26.78;95717.69;5089965;28;20218;-77
2022/03/26 07:07:39;;;;;;;12.57;7.72;;;;;;;29.68;26.61;95709.78;5090504;28;20717;-77
2022/03/26 07:10:07;;;;;;;12.55;8.35;;;;;;;29.76;26.56;95715.72;5075916;28;20207;-79
2022/03/26 07:12:36;;;;;;;10.50;7.78;;;;;;;29.80;26.61;95720.31;5071631;28;20624;-74
2022/03/26 07:15:05;;;;;;;12.38;7.25;;;;;;;29.83;26.36;95719.03;5087855;28;20198;-72
2022/03/26 07:17:31;;;;;;;16.40;8.20;;;;;;;29.85;26.69;95730.16;5087538;28;20200;-76
2022/03/26 07:19:58;;;;;;;15.05;8.18;;;;;;;29.85;26.68;95728.31;5088073;28;20196;-79
2022/03/26 07:22:25;;;;;;;9.43;7.70;;;;;;;29.86;26.23;95722.00;5087261;28;20190;-79
2022/03/26 07:24:52;;;;;;;17.20;7.70;;;;;;;29.85;26.06;95728.31;5087652;28;20204;-77
2022/03/26 07:27:18;;;;;;;12.07;8.55;;;;;;;29.86;25.86;95724.63;5087460;28;20182;-77
2022/03/26 07:29:48;;;;;;;12.82;8.32;;;;;;;29.89;25.54;95718.91;5088169;28;20217;-77
2022/03/26 07:32:15;;;;;;;13.32;7.40;;;;;;;29.88;25.40;95721.75;5093591;28;20185;-76
2022/03/26 07:34:42;;;;;;;16.92;8.45;;;;;;;29.90;25.91;95723.13;5094153;28;20250;-78
2022/03/26 07:37:09;;;;;;;14.43;7.93;;;;;;;29.93;25.59;95719.25;5094234;28;20200;-77
2022/03/26 07:39:36;;;;;;;13.60;8.20;;;;;;;29.94;25.05;95729.56;5088297;28;20197;-79
2022/03/26 07:42:03;;;;;;;11.80;7.22;;;;;;;29.97;25.70;95726.44;5077385;28;20204;-74
2022/03/26 07:44:29;;;;;;;10.85;7.53;;;;;;;30.17;24.38;95735.81;5093854;28;20193;-74
2022/03/26 07:46:58;;;;;;;11.88;8.65;;;;;;;30.41;22.83;95724.13;5094251;28;20618;-77
2022/03/26 07:49:25;;;;;;;18.30;10.10;;;;;;;30.70;21.79;95722.25;5093486;28;20247;-78
2022/03/26 07:51:54;;;;;;;14.77;9.13;;;;;;;30.95;20.99;95731.66;5095878;28;20178;-76
2022/03/26 07:54:21;;;;;;;16.02;9.85;;;;;;;31.26;20.79;95732.09;5094699;28;20201;-84
2022/03/26 07:56:48;;;;;;;16.05;9.73;;;;;;;31.50;19.97;95730.91;5095080;28;20188;-83
2022/03/26 07:59:15;;;;;;;17.98;9.52;;;;;;;31.68;19.86;95727.97;5094228;28;20197;-79
2022/03/26 08:01:42;;;;;;;15.52;9.07;;;;;;;31.87;19.50;95728.50;5092375;28;20189;-74
2022/03/26 08:04:10;;;;;;;11.60;9.80;;;;;;;32.04;19.46;95727.63;5094227;28;20193;-82
2022/03/26 08:06:37;;;;;;;13.02;9.75;;;;;;;32.18;19.01;95723.56;5096555;28;20189;-79
2022/03/26 08:09:05;;;;;;;18.80;9.93;;;;;;;32.33;18.60;95730.84;5095987;28;20228;-77
2022/03/26 08:11:32;;;;;;;14.98;9.85;;;;;;;32.42;18.72;95721.44;5096373;28;20193;-84
2022/03/26 08:13:59;;;;;;;13.02;10.02;;;;;;;32.50;18.63;95718.34;5096869;28;20177;-81
2022/03/26 08:16:26;;;;;;;20.67;10.20;;;;;;;32.55;18.21;95726.34;5096480;28;20200;-79
2022/03/26 08:18:52;;;;;;;16.70;10.80;;;;;;;32.58;18.24;95720.53;5096450;28;20519;-84
2022/03/26 08:21:21;;;;;;;13.52;10.18;;;;;;;32.62;18.22;95726.16;5096131;28;20189;-75
2022/03/26 08:23:48;;;;;;;15.02;10.60;;;;;;;32.63;18.42;95725.88;5096456;28;20952;-84
2022/03/26 08:26:22;;;;;;;14.63;10.20;;;;;;;32.63;18.18;95723.22;5096577;28;20200;-83
2022/03/26 08:28:50;;;;;;;13.95;11.18;;;;;;;32.61;17.91;95727.19;5096688;28;20208;-81
2022/03/26 08:31:17;;;;;;;13.10;9.75;;;;;;;32.58;17.77;95720.53;5094877;28;20217;-80
2022/03/26 08:33:44;;;;;;;13.98;10.00;;;;;;;32.55;18.03;95726.34;5095723;28;20201;-80
2022/03/26 08:36:11;;;;;;;16.33;10.55;;;;;;;32.49;17.95;95713.31;5096196;28;20193;-84
2022/03/26 08:38:40;;;;;;;18.13;10.15;;;;;;;32.41;18.16;95710.06;5096579;28;20276;-83
2022/03/26 08:41:07;;;;;;;13.57;11.27;;;;;;;32.34;18.06;95706.78;5096283;28;20207;-82
2022/03/26 08:43:34;;;;;;;17.38;11.68;;;;;;;32.26;18.30;95712.53;5093715;28;20265;-82
2022/03/26 08:46:01;;;;;;;12.88;11.02;;;;;;;32.14;18.17;95698.63;5101733;28;20189;-81
2022/03/26 08:48:28;;;;;;;16.58;11.90;;;;;;;32.04;18.17;95707.28;5102235;28;20193;-78
2022/03/26 08:50:55;;;;;;;15.98;10.75;;;;;;;31.90;18.28;95701.53;5097030;28;20201;-80
2022/03/26 08:53:23;;;;;;;13.07;10.45;;;;;;;31.79;18.12;95706.94;5093622;28;20568;-77
2022/03/26 08:55:52;;;;;;;14.75;10.30;;;;;;;31.61;17.91;95690.34;5094039;28;20285;-79
2022/03/26 08:58:19;;;;;;;14.13;11.00;;;;;;;31.52;17.90;95690.97;5092284;28;20247;-80
2022/03/26 09:00:47;;;;;;;17.13;10.77;;;;;;;31.39;17.89;95695.59;5093131;28;20193;-79
2022/03/26 09:03:14;;;;;;;14.48;10.55;;;;;;;31.24;18.50;95690.88;5093046;28;20247;-78
2022/03/26 09:05:41;;;;;;;15.07;11.23;;;;;;;31.08;17.98;95689.03;5093596;28;20192;-80
2022/03/26 09:08:09;;;;;;;17.27;11.40;;;;;;;30.89;18.17;95685.06;5093204;28;20219;-82
2022/03/26 09:10:35;;;;;;;15.15;11.95;;;;;;;30.77;18.42;95682.50;5093213;28;20205;-79
2022/03/26 09:13:04;;;;;;;14.07;11.00;;;;;;;30.61;18.70;95684.06;5092598;28;20217;-80
2022/03/26 09:15:31;;;;;;;15.90;11.75;;;;;;;30.45;18.32;95684.84;5092511;28;20198;-79
2022/03/26 09:17:58;;;;;;;12.18;10.40;;;;;;;30.25;18.69;95677.38;5092180;28;20182;-81
2022/03/26 09:20:24;;;;;;;16.52;12.05;;;;;;;30.06;18.86;95675.94;5091897;28;20342;-80
2022/03/26 09:22:51;;;;;;;16.08;11.02;;;;;;;29.85;18.77;95683.47;5091130;28;20941;-78
2022/03/26 09:25:19;;;;;;;15.73;10.82;;;;;;;29.65;19.06;95678.59;5090738;28;20567;-76
2022/03/26 09:27:46;;;;;;;16.15;10.55;;;;;;;29.43;18.65;95673.09;5092176;28;20190;-80
2022/03/26 09:30:15;;;;;;;21.00;11.07;;;;;;;29.24;19.02;95661.13;5091687;28;20236;-81
2022/03/26 09:32:44;;;;;;;21.67;10.50;;;;;;;29.07;19.26;95661.00;5091783;28;20653;-77
2022/03/26 09:35:11;;;;;;;14.13;10.05;;;;;;;28.86;18.86;95654.44;5091687;28;20201;-78
2022/03/26 09:37:38;;;;;;;11.57;10.20;;;;;;;28.68;19.15;95657.19;5092050;28;20648;-82
2022/03/26 09:40:06;;;;;;;15.02;9.32;;;;;;;28.49;19.52;95656.44;5092184;28;20567;-79
2022/03/26 09:42:34;;;;;;;16.70;9.75;;;;;;;28.26;19.45;95659.81;5091131;28;20201;-78
2022/03/26 09:45:03;;;;;;;12.38;9.88;;;;;;;28.03;19.87;95651.84;5091923;28;20200;-78
2022/03/26 09:47:31;;;;;;;15.52;10.10;;;;;;;27.82;19.97;95643.41;5091965;28;20189;-79
2022/03/26 09:49:58;;;;;;;11.68;9.40;;;;;;;27.63;19.84;95639.97;5090944;28;20232;-77
2022/03/26 09:52:26;;;;;;;13.20;8.68;;;;;;;27.46;19.86;95644.22;5091617;28;20783;-79
2022/03/26 09:54:53;;;;;;;16.73;9.95;;;;;;;27.27;20.39;95627.66;5090654;28;20190;-78
2022/03/26 09:57:19;;;;;;;13.75;8.80;;;;;;;27.13;20.43;95634.09;5091205;28;20212;-80
2022/03/26 09:59:46;;;;;;;13.10;8.60;;;;;;;26.94;20.57;95627.97;5091293;28;20190;-83
2022/03/26 10:02:13;;;;;;;17.95;9.40;;;;;;;26.75;20.71;95633.19;5091442;28;20197;-73
2022/03/26 10:04:43;;;;;;;12.88;8.07;;;;;;;26.56;20.76;95628.94;5091238;28;20222;-81
2022/03/26 10:07:10;;;;;;;10.57;7.88;;;;;;;26.37;20.70;95620.16;5091506;28;20190;-80
2022/03/26 10:09:38;;;;;;;12.85;8.52;;;;;;;26.19;20.79;95620.09;5091120;28;20707;-81
2022/03/26 10:12:07;;;;;;;8.82;7.40;;;;;;;26.01;20.98;95613.75;5091702;28;20178;-82
2022/03/26 10:14:39;;;;;;;15.63;8.93;;;;;;;25.87;20.91;95624.53;5090674;28;20680;-80
2022/03/26 10:17:14;;;;;;;10.15;6.88;;;;;;;25.70;21.15;95624.97;5089953;28;20714;-81
2022/03/26 10:19:47;;;;;;;11.55;7.50;;;;;;;25.54;21.26;95614.97;5091058;28;20570;-82
2022/03/26 10:22:26;;;;;;;13.15;7.15;;;;;;;25.39;21.39;95606.56;5091090;28;20201;-82
2022/03/26 10:24:53;;;;;;;10.07;7.18;;;;;;;25.25;21.48;95603.19;5090671;28;20223;-79
2022/03/26 10:27:21;;;;;;;13.63;8.07;;;;;;;25.13;21.42;95604.84;5090729;28;20181;-78
2022/03/26 10:29:53;;;;;;;9.18;6.68;;;;;;;25.00;21.54;95601.25;5090791;28;20218;-79
2022/03/26 10:32:39;;;;;;;12.95;6.60;;;;;;;24.90;21.86;95603.47;5090802;28;20188;-81
2022/03/26 10:35:09;;;;;;;11.30;6.93;;;;;;;24.75;21.96;95590.63;5090357;28;20201;-81
2022/03/26 10:37:44;;;;;;;13.30;6.43;;;;;;;24.68;21.90;95584.56;5091068;28;20255;-81
2022/03/26 10:40:23;;;;;;;9.27;6.65;;;;;;;24.59;22.10;95583.19;5090343;28;20688;-83
2022/03/26 10:42:54;;;;;;;11.27;7.15;;;;;;;24.50;22.15;95576.56;5090580;28;20193;-81
2022/03/26 10:45:21;;;;;;;8.60;6.63;;;;;;;24.39;22.20;95572.72;5090861;28;20192;-80
2022/03/26 10:47:50;;;;;;;8.00;6.45;;;;;;;24.28;22.29;95575.94;5090672;28;20523;-81
2022/03/26 10:50:19;;;;;;;10.00;7.30;;;;;;;24.19;22.06;95564.88;5090254;28;20227;-80
2022/03/26 10:52:46;;;;;;;10.27;7.47;;;;;;;24.12;22.34;95571.09;5090527;28;20186;-83
2022/03/26 10:55:15;;;;;;;10.32;6.63;;;;;;;24.02;22.56;95564.47;5090437;28;20266;-82
2022/03/26 10:57:45;;;;;;;8.40;6.25;;;;;;;23.95;22.41;95563.63;5090597;28;20190;-80
2022/03/26 11:00:13;;;;;;;12.80;6.47;;;;;;;23.85;22.34;95565.84;5090125;28;20288;-81
2022/03/26 11:02:41;;;;;;;8.57;5.25;;;;;;;23.79;22.39;95561.41;5090534;28;20186;-81
2022/03/26 11:05:09;;;;;;;9.05;5.78;;;;;;;23.71;22.42;95557.19;5090133;28;20876;-78
2022/03/26 11:07:40;;;;;;;6.43;5.63;;;;;;;23.68;22.65;95548.94;5088637;28;20193;-76
2022/03/26 11:10:09;;;;;;;8.05;5.38;;;;;;;23.58;22.78;95548.50;5089837;28;20315;-78
2022/03/26 11:12:41;;;;;;;7.22;5.53;;;;;;;23.48;22.68;95546.22;5090261;28;20204;-82
2022/03/26 11:15:13;;;;;;;11.55;5.78;;;;;;;23.43;22.88;95546.03;5090224;28;20262;-79
2022/03/26 11:17:52;;;;;;;9.77;5.65;;;;;;;23.37;22.96;95539.00;5089828;28;20190;-79
2022/03/26 11:20:39;;;;;;;8.32;4.95;;;;;;;23.32;22.93;95536.97;5089729;28;20190;-78
2022/03/26 11:23:22;;;;;;;6.97;5.25;;;;;;;23.26;23.00;95535.91;5089883;28;20718;-78
2022/03/26 11:25:56;;;;;;;9.48;5.68;;;;;;;23.22;23.15;95532.09;5090074;28;20225;-75
2022/03/26 11:28:42;;;;;;;8.20;5.07;;;;;;;23.18;23.10;95525.66;5089627;28;20621;-78